This is the latest recevied weather packets stored in our database for station/object EA1FWM-12. If no packets are shown the sender has not sent any weather packets the latest 10 day(s).
| Time | Temp. | Humidity | Pressure | Rain* | Wind** | Luminosity | Snow |
|---|---|---|---|---|---|---|---|
| 1787537025 | 17.78° C | 62% | 1013.9 hPa | - | - | - | - |
| 1787536130 | 17.78° C | 62% | 1014.2 hPa | - | - | - | - |
| 1787533421 | 17.22° C | 62% | 1014.7 hPa | - | - | - | - |
| 1787531608 | 17.22° C | 63% | 1015.2 hPa | - | - | - | - |
| 1787530712 | 17.22° C | 64% | 1015.3 hPa | - | - | - | - |
| 1787528906 | 15.56° C | 69% | 1015.8 hPa | - | - | - | - |
| 1787527094 | 16.67° C | 65% | 1016.1 hPa | - | - | - | - |
| 1787526189 | 16.67° C | 66% | 1015.7 hPa | - | - | - | - |
| 1787525294 | 16.11° C | 68% | 1015.8 hPa | - | - | - | - |
| 1787524391 | 15.56° C | 71% | 1015.8 hPa | - | - | - | - |
| 1787523488 | 15° C | 73% | 1016.3 hPa | - | - | - | - |
| 1787522585 | 14.44° C | 74% | 1016.8 hPa | - | - | - | - |
| 1787520771 | 15.56° C | 73% | 1017 hPa | - | - | - | - |
| 1787518969 | 17.22° C | 75% | 1018.6 hPa | - | - | - | - |
| 1787518070 | 18.89° C | 69% | 1017.3 hPa | - | - | - | - |
| 1787517171 | 19.44° C | 63% | 1017.3 hPa | - | - | - | - |
| 1787516270 | 20° C | 60% | 1016.8 hPa | - | - | - | - |
| 1787515370 | 20° C | 59% | 1016.6 hPa | - | - | - | - |
| 1787514471 | 20.56° C | 57% | 1016.2 hPa | - | - | - | - |
| 1787513572 | 20.56° C | 57% | 1016.4 hPa | - | - | - | - |
| 1787512672 | 20.56° C | 57% | 1016.2 hPa | - | - | - | - |
| 1787511772 | 21.11° C | 55% | 1016.1 hPa | - | - | - | - |
| 1787510872 | 21.67° C | 54% | 1015.9 hPa | - | - | - | - |
| 1787509973 | 22.22° C | 54% | 1016 hPa | - | - | - | - |
| 1787508174 | 23.33° C | 53% | 1015.6 hPa | - | - | - | - |
* Rain since midnight (hover to see other rain measurements)
** Current wind speed in m/s (hover to see current wind gust speed)